createdAt,value
2016-01-01T16:32:36.612Z,1016.5
2016-01-01T16:33:37.052Z,1016.6
2016-01-01T16:34:36.774Z,1016.5
2016-01-01T16:35:36.917Z,1016.5
2016-01-01T16:36:36.638Z,1016.5
2016-01-01T16:37:36.579Z,1016.5
2016-01-01T16:38:36.519Z,1016.5
2016-01-01T16:39:36.491Z,1016.5
2016-01-01T16:40:36.415Z,1016.5
2016-01-01T16:41:36.355Z,1016.4
2016-01-01T16:42:36.296Z,1016.4
2016-01-01T16:43:36.252Z,1016.4
2016-01-01T16:44:36.223Z,1016.5
2016-01-01T16:45:36.147Z,1016.4
2016-01-01T16:46:36.088Z,1016.4
2016-01-01T16:47:36.025Z,1016.5
2016-01-01T16:48:35.982Z,1016.5
2016-01-01T16:49:35.922Z,1016.4
2016-01-01T16:50:35.846Z,1016.4
2016-01-01T16:51:36.036Z,1016.5
2016-01-01T16:52:35.742Z,1016.3
2016-01-01T16:53:35.713Z,1016.5
2016-01-01T16:54:35.654Z,1016.4
2016-01-01T16:55:35.579Z,1016.4
2016-01-01T16:56:35.519Z,1016.5
2016-01-01T16:57:35.475Z,1016.3
2016-01-01T16:58:35.447Z,1016.5
2016-01-01T16:59:35.355Z,1016.3
2016-01-01T17:00:35.296Z,1016.3
2016-01-01T17:01:35.252Z,1016.4
2016-01-01T17:02:35.207Z,1016.4
2016-01-01T17:03:35.132Z,1016.4
2016-01-01T17:04:35.088Z,1016.4
2016-01-01T17:05:35.028Z,1016.5
2016-01-01T17:06:34.985Z,1016.5
2016-01-01T17:07:34.924Z,1016.4
2016-01-01T17:08:34.865Z,1016.4
2016-01-01T17:09:34.804Z,1016.4
2016-01-01T17:10:34.745Z,1016.4
2016-01-01T17:11:34.701Z,1016.4
2016-01-01T17:12:34.657Z,1016.3
2016-01-01T17:13:34.816Z,1016.4
2016-01-01T17:14:34.538Z,1016.4
2016-01-01T17:15:34.477Z,1016.4
2016-01-01T17:16:34.434Z,1016.4
2016-01-01T17:17:34.390Z,1016.4
2016-01-01T17:18:34.315Z,1016.4
2016-01-01T17:19:34.255Z,1016.5
2016-01-01T17:20:34.210Z,1016.3
2016-01-01T17:21:34.151Z,1016.2
2016-01-01T17:22:34.294Z,1016.3
2016-01-01T17:23:34.032Z,1016.3
2016-01-01T17:24:34.174Z,1016.2
2016-01-01T17:25:33.927Z,1016.3
2016-01-01T17:26:33.883Z,1016.3
2016-01-01T17:27:34.010Z,1016.3
2016-01-01T17:28:33.760Z,1016.2
2016-01-01T17:29:33.903Z,1016.1
2016-01-01T17:30:33.860Z,1016.2
2016-01-01T17:31:33.613Z,1016.2
2016-01-01T17:32:32.803Z,1016.3
2016-01-01T17:33:33.478Z,1016.2
2016-01-01T17:34:33.652Z,1016.1
2016-01-01T17:35:33.373Z,1016.3
2016-01-01T17:36:33.329Z,1016.3
2016-01-01T17:37:33.254Z,1016.3
2016-01-01T17:38:33.225Z,1016.2
2016-01-01T17:39:33.150Z,1016.2
2016-01-01T17:40:33.106Z,1016.2
2016-01-01T17:41:33.031Z,1016.2
2016-01-01T17:42:32.971Z,1016.2
2016-01-01T17:43:32.926Z,1016.2
2016-01-01T17:44:32.867Z,1016.1
2016-01-01T17:45:32.823Z,1016
2016-01-01T17:46:32.763Z,1016.1
2016-01-01T17:47:32.704Z,1016.2
2016-01-01T17:48:32.644Z,1016.2
2016-01-01T17:49:32.600Z,1016.1
2016-01-01T17:50:32.539Z,1016.2
2016-01-01T17:51:32.464Z,1016.2
2016-01-01T17:52:32.420Z,1016.1
2016-01-01T17:53:32.423Z,1016.1
2016-01-01T17:54:32.300Z,1016.2
2016-01-01T17:55:32.460Z,1016.2
2016-01-01T17:56:32.197Z,1016.2
2016-01-01T17:57:32.137Z,1016.2
2016-01-01T17:58:32.092Z,1016.2
2016-01-01T17:59:32.033Z,1016.3
2016-01-01T18:00:31.974Z,1016.2
2016-01-01T18:01:31.914Z,1016.1
2016-01-01T18:02:31.870Z,1016.1
2016-01-01T18:03:31.811Z,1016.2
2016-01-01T18:04:31.750Z,1016.2
2016-01-01T18:05:31.737Z,1016.2
2016-01-01T18:06:31.647Z,1016.1
2016-01-01T18:07:31.775Z,1016.2
2016-01-01T18:08:31.542Z,1016.1
2016-01-01T18:09:31.464Z,1016.1
2016-01-01T18:10:31.436Z,1016.1
2016-01-01T18:11:31.361Z,1016.2
2016-01-01T18:12:31.300Z,1016
2016-01-01T18:13:31.256Z,1016.1
2016-01-01T18:14:31.213Z,1016.1
2016-01-01T18:15:31.136Z,1016.1
2016-01-01T18:16:31.093Z,1016
2016-01-01T18:17:31.034Z,1016
2016-01-01T18:18:30.974Z,1016
2016-01-01T18:19:30.913Z,1016.1
2016-01-01T18:20:30.885Z,1016
2016-01-01T18:21:30.810Z,1015.9
2016-01-01T18:22:30.766Z,1016
2016-01-01T18:23:30.706Z,1016
2016-01-01T18:24:30.834Z,1015.9
2016-01-01T18:25:30.586Z,1016
2016-01-01T18:26:30.542Z,1016
2016-01-01T18:27:30.467Z,1016
2016-01-01T18:28:30.408Z,1016
2016-01-01T18:29:30.364Z,1015.9
2016-01-01T18:30:30.303Z,1016
2016-01-01T18:31:30.260Z,1015.8
2016-01-01T18:32:30.199Z,1015.8
2016-01-01T18:33:30.141Z,1015.8
2016-01-01T18:34:30.080Z,1015.7
2016-01-01T18:35:30.239Z,1015.8
2016-01-01T18:36:29.992Z,1015.8
2016-01-01T18:37:29.916Z,1015.8
2016-01-01T18:38:29.857Z,1015.8
2016-01-01T18:39:30.032Z,1015.8
2016-01-01T18:40:29.769Z,1015.8
2016-01-01T18:41:29.694Z,1015.7
2016-01-01T18:42:29.649Z,1015.8
2016-01-01T18:43:29.589Z,1015.8
2016-01-01T18:44:29.546Z,1015.8
2016-01-01T18:45:29.485Z,1015.8
2016-01-01T18:46:29.426Z,1015.7
2016-01-01T18:47:29.366Z,1015.8
2016-01-01T18:48:29.556Z,1015.7
2016-01-01T18:49:29.259Z,1015.7
2016-01-01T18:50:29.215Z,1015.7
2016-01-01T18:51:29.140Z,1015.8
2016-01-01T18:52:29.096Z,1015.8
2016-01-01T18:53:29.051Z,1015.8
2016-01-01T18:54:28.835Z,1015.8
2016-01-01T18:55:28.948Z,1015.7
2016-01-01T18:56:28.872Z,1015.8
2016-01-01T18:57:28.813Z,1015.7
2016-01-01T18:58:28.769Z,1015.8
2016-01-01T18:59:28.943Z,1015.8
2016-01-01T19:00:28.665Z,1015.9
2016-01-01T19:01:28.604Z,1015.8
2016-01-01T19:02:28.545Z,1015.8
2016-01-01T19:03:28.485Z,1015.9
2016-01-01T19:04:28.441Z,1015.7
2016-01-01T19:05:28.413Z,1015.7
2016-01-01T19:06:28.322Z,1015.8
2016-01-01T19:07:28.277Z,1015.7
2016-01-01T19:08:28.218Z,1015.7
2016-01-01T19:09:28.158Z,1015.6
2016-01-01T19:10:28.114Z,1015.6
2016-01-01T19:11:28.054Z,1015.6
2016-01-01T19:12:28.010Z,1015.5
2016-01-01T19:13:27.951Z,1015.5
2016-01-01T19:14:27.891Z,1015.6
2016-01-01T19:15:27.831Z,1015.5
2016-01-01T19:16:28.006Z,1015.5
2016-01-01T19:17:27.727Z,1015.6
2016-01-01T19:18:27.682Z,1015.6
2016-01-01T19:19:27.607Z,1015.5
2016-01-01T19:20:27.563Z,1015.6
2016-01-01T19:21:27.862Z,1015.5
2016-01-01T19:22:27.459Z,1015.5
2016-01-01T19:23:27.384Z,1015.5
2016-01-01T19:24:27.340Z,1015.5
2016-01-01T19:25:27.280Z,1015.4
2016-01-01T19:26:27.236Z,1015.4
2016-01-01T19:27:27.192Z,1015.5
2016-01-01T19:28:27.117Z,1015.4
2016-01-01T19:29:26.917Z,1015.3
2016-01-01T19:30:27.013Z,1015.4
2016-01-01T19:31:26.968Z,1015.3
2016-01-01T19:32:26.925Z,1015.3
2016-01-01T19:33:26.846Z,1015.3
2016-01-01T19:34:26.989Z,1015.3
2016-01-01T19:35:26.726Z,1015.2
2016-01-01T19:36:26.683Z,1015.3
2016-01-01T19:37:26.623Z,1015.3
2016-01-01T19:38:26.579Z,1015.3
2016-01-01T19:39:26.503Z,1015.3
2016-01-01T19:40:26.459Z,1015.3
2016-01-01T19:41:26.415Z,1015.4
2016-01-01T19:42:26.356Z,1015.3
2016-01-01T19:43:26.295Z,1015.3
2016-01-01T19:44:26.251Z,1015.3
2016-01-01T19:45:26.208Z,1015.3
2016-01-01T19:46:26.131Z,1015.2
2016-01-01T19:47:26.072Z,1015.2
2016-01-01T19:48:26.012Z,1015.1
2016-01-01T19:49:25.969Z,1015.2
2016-01-01T19:50:25.924Z,1015.2
2016-01-01T19:51:25.849Z,1015.2
2016-01-01T19:52:25.789Z,1015.1
2016-01-01T19:53:25.745Z,1015.1
2016-01-01T19:54:25.685Z,1015.1
2016-01-01T19:55:25.656Z,1015.1
2016-01-01T19:56:25.784Z,1015.1
2016-01-01T19:57:25.521Z,1015.1
2016-01-01T19:58:25.478Z,1015.2
2016-01-01T19:59:25.434Z,1015.1
2016-01-01T20:00:25.389Z,1015.1
2016-01-01T20:01:25.298Z,1015.1
2016-01-01T20:02:25.255Z,1015.1
2016-01-01T20:03:25.397Z,1015
2016-01-01T20:04:25.166Z,1015
2016-01-01T20:05:25.091Z,1015
2016-01-01T20:06:25.234Z,1015.1
2016-01-01T20:07:24.971Z,1014.9
2016-01-01T20:08:24.928Z,1015.1
2016-01-01T20:09:24.883Z,1015
2016-01-01T20:10:24.855Z,1015
2016-01-01T20:11:24.763Z,1015
2016-01-01T20:12:24.703Z,1014.9
2016-01-01T20:13:24.643Z,1014.9
2016-01-01T20:14:23.881Z,1014.9
2016-01-01T20:15:24.540Z,1014.9
2016-01-01T20:16:24.477Z,1014.9
2016-01-01T20:17:24.417Z,1014.9
2016-01-01T20:18:24.373Z,1014.9
2016-01-01T20:19:24.329Z,1014.9
2016-01-01T20:20:24.254Z,1014.8
2016-01-01T20:21:24.210Z,1014.8
2016-01-01T20:22:24.149Z,1014.9
2016-01-01T20:23:24.105Z,1014.9
2016-01-01T20:24:24.046Z,1014.9
2016-01-01T20:25:23.235Z,1014.8
2016-01-01T20:26:23.926Z,1014.9
2016-01-01T20:27:23.866Z,1014.9
2016-01-01T20:28:23.823Z,1014.9
2016-01-01T20:29:23.763Z,1014.9
2016-01-01T20:30:23.703Z,1014.9
2016-01-01T20:31:23.659Z,1014.9
2016-01-01T20:32:23.614Z,1014.8
2016-01-01T20:33:23.555Z,1014.9
2016-01-01T20:34:23.715Z,1014.9
2016-01-01T20:35:23.435Z,1014.7
2016-01-01T20:36:23.376Z,1014.8
2016-01-01T20:37:23.331Z,1014.8
2016-01-01T20:38:23.288Z,1014.8
2016-01-01T20:39:23.229Z,1014.9
2016-01-01T20:40:23.168Z,1014.8
2016-01-01T20:41:23.093Z,1014.8
2016-01-01T20:42:23.049Z,1014.8
2016-01-01T20:43:23.004Z,1014.8
2016-01-01T20:44:22.945Z,1014.8
2016-01-01T20:45:22.885Z,1014.8
2016-01-01T20:46:22.826Z,1014.8
2016-01-01T20:47:22.781Z,1014.7
2016-01-01T20:48:22.721Z,1014.7
2016-01-01T20:49:22.692Z,1014.7
2016-01-01T20:50:22.618Z,1014.7
2016-01-01T20:51:22.557Z,1014.7
2016-01-01T20:52:22.498Z,1014.7
2016-01-01T20:53:22.454Z,1014.7
2016-01-01T20:54:22.379Z,1014.6
2016-01-01T20:55:22.334Z,1014.7
2016-01-01T20:56:22.290Z,1014.5
2016-01-01T20:57:22.231Z,1014.6
2016-01-01T20:58:22.186Z,1014.6
2016-01-01T20:59:22.111Z,1014.6
2016-01-01T21:00:22.067Z,1014.6
2016-01-01T21:01:22.004Z,1014.6
2016-01-01T21:02:21.955Z,1014.6
2016-01-01T21:03:21.894Z,1014.5
2016-01-01T21:04:21.835Z,1014.5
2016-01-01T21:05:21.791Z,1014.6
2016-01-01T21:06:21.746Z,1014.6
2016-01-01T21:07:21.703Z,1014.7
2016-01-01T21:08:21.628Z,1014.5
2016-01-01T21:09:21.552Z,1014.5
2016-01-01T21:10:21.508Z,1014.6
2016-01-01T21:11:21.448Z,1014.5
2016-01-01T21:12:21.639Z,1014.6
2016-01-01T21:13:21.360Z,1014.5
2016-01-01T21:14:21.300Z,1014.5
2016-01-01T21:15:21.241Z,1014.5
2016-01-01T21:16:21.180Z,1014.6
2016-01-01T21:17:21.136Z,1014.5
2016-01-01T21:18:21.092Z,1014.4
2016-01-01T21:19:21.017Z,1014.5
2016-01-01T21:20:21.161Z,1014.5
2016-01-01T21:21:20.897Z,1014.6
2016-01-01T21:22:20.853Z,1014.5
2016-01-01T21:23:20.809Z,1014.4
2016-01-01T21:24:20.749Z,1014.4
2016-01-01T21:25:20.689Z,1014.5
2016-01-01T21:26:20.630Z,1014.5
2016-01-01T21:27:20.586Z,1014.5
2016-01-01T21:28:20.526Z,1014.4
2016-01-01T21:29:20.466Z,1014.4
2016-01-01T21:30:20.407Z,1014.3
2016-01-01T21:31:20.362Z,1014.3
2016-01-01T21:32:20.318Z,1014.3
2016-01-01T21:33:20.493Z,1014.4
2016-01-01T21:34:20.199Z,1014.4
2016-01-01T21:35:20.139Z,1014.3
2016-01-01T21:36:20.095Z,1014.4
2016-01-01T21:37:20.035Z,1014.4
2016-01-01T21:38:19.975Z,1014.3
2016-01-01T21:39:19.916Z,1014.2
2016-01-01T21:40:20.074Z,1014.3
2016-01-01T21:41:19.812Z,1014.2
2016-01-01T21:42:19.782Z,1014.3
2016-01-01T21:43:19.692Z,1014.2
2016-01-01T21:44:19.648Z,1014.3
2016-01-01T21:45:19.604Z,1014.3
2016-01-01T21:46:19.541Z,1014.4
2016-01-01T21:47:19.496Z,1014.4
2016-01-01T21:48:18.874Z,1014.4
2016-01-01T21:49:19.378Z,1014.4
2016-01-01T21:50:19.302Z,1014.3
2016-01-01T21:51:19.274Z,1014.4
2016-01-01T21:52:19.215Z,1014.2
2016-01-01T21:53:19.154Z,1014.2
2016-01-01T21:54:19.095Z,1014.3
2016-01-01T21:55:19.035Z,1014.3
2016-01-01T21:56:18.991Z,1014.3
2016-01-01T21:57:18.946Z,1014.3
2016-01-01T21:58:18.871Z,1014.3
2016-01-01T21:59:18.812Z,1014.3
2016-01-01T22:00:18.752Z,1014.1
2016-01-01T22:01:18.707Z,1014.2
2016-01-01T22:02:18.679Z,1014.3
2016-01-01T22:03:18.604Z,1014.3
2016-01-01T22:04:18.544Z,1014
2016-01-01T22:05:18.501Z,1014.2
2016-01-01T22:06:18.441Z,1014.1
2016-01-01T22:07:18.381Z,1014.1
2016-01-01T22:08:18.320Z,1014.2
2016-01-01T22:09:18.276Z,1014.2
2016-01-01T22:10:18.232Z,1014.1
2016-01-01T22:11:18.173Z,1014.1
2016-01-01T22:12:18.098Z,1014.2
2016-01-01T22:13:18.054Z,1014.2
2016-01-01T22:14:18.009Z,1014.2
2016-01-01T22:15:17.949Z,1014.1
2016-01-01T22:16:17.906Z,1014.1
2016-01-01T22:17:17.829Z,1014.1
2016-01-01T22:18:17.771Z,1014
2016-01-01T22:19:17.742Z,1014
2016-01-01T22:20:17.682Z,1014.1
2016-01-01T22:21:17.607Z,1014
2016-01-01T22:22:17.545Z,1014.1
2016-01-01T22:23:17.500Z,1014.1
2016-01-01T22:24:17.456Z,1014.1
2016-01-01T22:25:17.412Z,1014.2
2016-01-01T22:26:17.352Z,1014.1
2016-01-01T22:27:17.277Z,1014.2
2016-01-01T22:28:17.420Z,1014.1
2016-01-01T22:29:17.172Z,1014.2
2016-01-01T22:30:17.129Z,1014.1
2016-01-01T22:31:17.069Z,1014.1
2016-01-01T22:32:16.993Z,1014.2
2016-01-01T22:33:17.137Z,1014
2016-01-01T22:34:16.890Z,1014.2
2016-01-01T22:35:16.846Z,1014.1
2016-01-01T22:36:16.787Z,1014.1
2016-01-01T22:37:16.726Z,1014.1
2016-01-01T22:38:16.667Z,1014.1
2016-01-01T22:39:16.607Z,1013.9
2016-01-01T22:40:16.563Z,1014
2016-01-01T22:41:16.518Z,1014
2016-01-01T22:42:16.442Z,1014
2016-01-01T22:43:16.384Z,1014
2016-01-01T22:44:16.184Z,1014
2016-01-01T22:45:16.280Z,1013.9
2016-01-01T22:46:16.236Z,1013.9
2016-01-01T22:47:16.597Z,1013.8
2016-01-01T22:48:16.320Z,1013.9
2016-01-01T22:49:16.057Z,1014
2016-01-01T22:50:16.012Z,1013.9
2016-01-01T22:51:15.968Z,1014
2016-01-01T22:52:15.893Z,1013.9
2016-01-01T22:53:15.833Z,1013.8
2016-01-01T22:54:15.804Z,1013.8
2016-01-01T22:55:15.745Z,1013.9
2016-01-01T22:56:15.684Z,1013.9
2016-01-01T22:57:14.859Z,1013.8
2016-01-01T22:58:15.564Z,1013.8
2016-01-01T22:59:15.521Z,1013.8
2016-01-01T23:00:15.458Z,1013.8
2016-01-01T23:01:15.414Z,1013.9
2016-01-01T23:02:15.339Z,1013.8
2016-01-01T23:03:15.514Z,1014
2016-01-01T23:04:15.235Z,1013.9
2016-01-01T23:05:15.192Z,1014
2016-01-01T23:06:15.147Z,1013.8
2016-01-01T23:07:15.072Z,1013.8
2016-01-01T23:08:15.011Z,1013.8
2016-01-01T23:09:14.967Z,1013.9
2016-01-01T23:10:14.908Z,1013.8
2016-01-01T23:11:14.848Z,1013.8
2016-01-01T23:12:14.788Z,1013.8
2016-01-01T23:13:14.728Z,1013.7
2016-01-01T23:14:14.685Z,1013.7
2016-01-01T23:15:14.640Z,1013.7
2016-01-01T23:16:14.566Z,1013.7
2016-01-01T23:17:14.521Z,1013.8
2016-01-01T23:18:14.461Z,1013.7
2016-01-01T23:19:14.417Z,1013.8
2016-01-01T23:20:14.372Z,1013.6
2016-01-01T23:21:14.298Z,1013.7
2016-01-01T23:22:14.238Z,1013.7
2016-01-01T23:23:14.193Z,1013.6
2016-01-01T23:24:14.134Z,1013.6
2016-01-01T23:25:14.091Z,1013.5
2016-01-01T23:26:14.014Z,1013.7
2016-01-01T23:27:13.955Z,1013.6
2016-01-01T23:28:13.926Z,1013.6
2016-01-01T23:29:13.882Z,1013.6
2016-01-01T23:30:13.822Z,1013.4
2016-01-01T23:31:13.747Z,1013.6
2016-01-01T23:32:13.702Z,1013.5
2016-01-01T23:33:12.908Z,1013.5
2016-01-01T23:34:13.569Z,1013.6
2016-01-01T23:35:13.524Z,1013.4
2016-01-01T23:36:13.464Z,1013.5
2016-01-01T23:37:13.420Z,1013.5
2016-01-01T23:38:13.563Z,1013.6
2016-01-01T23:39:12.550Z,1013.4
2016-01-01T23:40:13.475Z,1013.5
2016-01-01T23:41:13.196Z,1013.3
2016-01-01T23:42:13.137Z,1013.3
2016-01-01T23:43:13.077Z,1013.4
2016-01-01T23:44:13.033Z,1013.4
2016-01-01T23:45:12.957Z,1013.4
2016-01-01T23:46:12.913Z,1013.4
2016-01-01T23:47:12.866Z,1013.5
2016-01-01T23:48:12.791Z,1013.4
2016-01-01T23:49:12.731Z,1013.3
2016-01-01T23:50:12.906Z,1013.5
2016-01-01T23:51:12.627Z,1013.4
2016-01-01T23:52:12.582Z,1013.3
2016-01-01T23:53:12.507Z,1013.3
2016-01-01T23:54:12.651Z,1013.4
2016-01-01T23:55:12.388Z,1013.3
2016-01-01T23:56:12.344Z,1013.4
2016-01-01T23:57:12.300Z,1013.4
2016-01-01T23:58:12.240Z,1013.4
2016-01-01T23:59:12.181Z,1013.3
